KGBD

Great Bend Municipal Airport

Great Bend, Kansas, USA
METAR KGBD 171556Z AUTO 07010KT 10SM FEW025 27/20 A3014 RMK AO2 SLP187 T02670200
Observed Flight Rules
Aug-17 @ 15:56 UTC (56 minutes ago) Visual Flight Rules
Wind Visibility Clouds
70° at 10 knots 10 miles
  • Few at 2,500' AGL
Temperatures Readings
Current 27°C / 81°F
Dewpoint 20°C / 68°F
Humidity 66%
Altimeter 30.14" Hg
Pressure 1018.7 hPa
Elevation 575
METAR KGBD 171556Z AUTO 07010KT 10SM FEW025 27/20 A3014 RMK AO2 SLP187 T02670200
Observed Flight Rules
Aug-17 @ 15:56 UTC
(56 minutes ago)
VFR
Wind Visibility
70° at 10 knots 10 miles
Clouds
  • Few at 2,500' AGL
Temperature Dewpoint
27°C / 81°F 20°C / 68°F
Humidity Altimeter Pressure
66% 30.14" Hg 1018.7 hPa